Tropical Cyclones
[Index]
Main Index Home Page Stock Weather Photos Extreme Storms Discussion Storm News and Storm Chasing Reports Tropical Cyclones / Hurricanes / Typhoons Weather Data and Links Wild Fires / Bushfires Weather Observation Techniques Weather Picture Catalogue Tornado Pictures and Reports Stock Video Footage and DVDs for sale
Season 2003-2004 Tropical Cyclone NICKY-HELMA Track Map
Season 2003-2004 Summaries: [BoM-AU] [JTWC-AU] [JTWC-SIO] [JTWC-SPAC] [JTWC-SH]
<<- Previous TC | JTWC 2003-2004 Season | Next TC ->>

click for intensity scale information  Lat/long Grid: Show Hide

 Date Labels: Show Hide

Joint Typhoon Warning Centre Cyclone Data

Name: NICKY-HELMA

07 Mar 2004 12:00 UTC to 13 Mar 2004 12:00 UTC

    date/time    lat    long     hPa   cat  kts
2004-03-07 12   13.1    89.1    1006         15          
2004-03-07 18   13.1    89.6    1006         15          
2004-03-08 00   13.2    90.1    1004         20          
2004-03-08 06   13.2    90.6    1002         25          
2004-03-08 12   13.0    91.2    1002         25          
2004-03-08 18   12.6    90.9    1002         25          
2004-03-09 00   12.9    90.5    1000         30          
2004-03-09 06   13.2    90.8     997         35          
2004-03-09 12   13.6    90.8     991    1    45          
2004-03-09 18   14.0    90.7     991    1    45          
2004-03-10 00   14.4    90.5     987    1    50          
2004-03-10 06   14.9    90.3     984    2    55          
2004-03-10 06   14.9    90.3     984    2    55          
2004-03-10 12   15.6    90.1     980    2    60          
2004-03-10 12   15.6    90.1     980    2    60          
2004-03-10 18   16.5    89.8     976    2    65          
2004-03-10 18   16.5    89.8     976    2    65          
2004-03-11 00   17.2    89.0     976    2    65          
2004-03-11 00   17.2    89.0     976    2    65          
2004-03-11 06   17.9    88.3     976    2    65          
2004-03-11 06   17.9    88.3     976    2    65          
2004-03-11 12   18.4    87.7     976    2    65          
2004-03-11 12   18.4    87.7     976    2    65          
2004-03-11 18   18.9    87.2     976    2    65          
2004-03-11 18   18.9    87.2     976    2    65          
2004-03-12 00   19.5    86.9     976    2    65          
2004-03-12 00   19.5    86.9     976    2    65          
2004-03-12 06   19.7    86.2     976    2    65          
2004-03-12 06   19.7    86.2     976    2    65          
2004-03-12 12   19.9    85.4     984    2    55          
2004-03-12 12   19.9    85.4     984    2    55          
2004-03-12 18   20.4    84.5     984    2    55          
2004-03-12 18   20.4    84.5     984    2    55          
2004-03-13 00   21.3    83.9     991    1    45          
2004-03-13 06   22.4    83.8     997         35          
2004-03-13 12   23.3    84.4    1000         30          
Winds are 1-min average.

Tropical cyclone tracks developed by Michael Bath using data from the Joint Typhoon Warning Centre Best Tracks and Google Maps.


[Australian Severe Weather index] [Copyright Notice] [Email Contacts] [Search This Site] [Privacy Policy]
Document: tropical_cyclone_nicky-helma.htm Updated: 28 June 2017